KDNS/DNS METAR and TAF weather

Enter ICAO airport designator
Station Type Date Time Source
KDNS METAR 2021/07/28 20:55 UTC NOAA

KDNS 282055Z AUTO 19012KT 10SM CLR 34/24 A3000 RMK AO2


Station Type Date Time Source
KDNS Decoded METAR 2021/07/28 20:55 UTC NOAA

Denison, IA, United States (KDNS) 41-59N 095-23W
Jul 28, 2021 - 04:55 PM EDT / 2021.07.28 2055 UTC
Wind: from the S (190 degrees) at 14 MPH (12 KT):0
Visibility: 10 mile(s):0
Sky conditions: clear
Temperature: 93 F (34 C)
Heat index: 104.5 F (40.3 C):1
Dew Point: 75 F (24 C)
Relative Humidity: 56%
Pressure (altimeter): 30 in. Hg (1015 hPa)
ob: KDNS 282055Z AUTO 19012KT 10SM CLR 34/24 A3000 RMK AO2
cycle: 21

Station Type Date Time Source
KDNS TAF UTC NOAA

Error!

Example: see airport list